Time;durP1;ratioP1;P1;durP2;ratioP2;P2;SDS_P1;SDS_P2;PMS_P1;PMS_P2;Temp;Humidity;BMP_temperature;BMP_pressure;BME280_temperature;BME280_humidity;BME280_pressure;Samples;Min_cycle;Max_cycle;Signal;HPM_P1;HPM_P2
2023/08/30 00:00:41;;;;;;;3.37;1.90;;;15.90;99.90;;;;;;4984232;28;20513;-72
2023/08/30 00:03:07;;;;;;;5.22;1.83;;;15.70;99.90;;;;;;4980675;28;20042;-73
2023/08/30 00:05:33;;;;;;;3.65;2.13;;;15.60;99.90;;;;;;4983386;28;20133;-72
2023/08/30 00:07:58;;;;;;;5.07;1.80;;;15.50;99.90;;;;;;4983604;28;20034;-71
2023/08/30 00:10:24;;;;;;;4.90;2.40;;;15.40;99.90;;;;;;5011793;28;20694;-72
2023/08/30 00:12:50;;;;;;;3.57;2.33;;;15.30;99.90;;;;;;4982609;28;20044;-72
2023/08/30 00:15:16;;;;;;;10.23;2.38;;;15.30;99.90;;;;;;4978362;28;20034;-73
2023/08/30 00:17:42;;;;;;;17.85;2.53;;;15.30;99.90;;;;;;4976913;28;20034;-73
2023/08/30 00:20:08;;;;;;;8.43;2.50;;;15.20;99.90;;;;;;4980065;28;20038;-72
2023/08/30 00:22:34;;;;;;;3.70;2.47;;;15.20;99.90;;;;;;4975381;28;20173;-71
2023/08/30 00:25:00;;;;;;;4.03;2.07;;;15.10;99.90;;;;;;4976920;28;20105;-72
2023/08/30 00:27:25;;;;;;;13.00;2.67;;;15.10;99.90;;;;;;4981093;28;20072;-72
2023/08/30 00:29:51;;;;;;;6.83;2.77;;;15.10;99.90;;;;;;4976244;28;20022;-72
2023/08/30 00:32:16;;;;;;;6.77;2.40;;;15.10;99.90;;;;;;4975356;28;20196;-70
2023/08/30 00:34:42;;;;;;;7.10;2.50;;;14.90;99.90;;;;;;4985628;28;20030;-69
2023/08/30 00:37:08;;;;;;;4.10;2.27;;;15.00;99.90;;;;;;4981059;28;20655;-69
2023/08/30 00:39:36;;;;;;;3.25;2.45;;;14.90;99.90;;;;;;5005507;28;20482;-69
2023/08/30 00:42:05;;;;;;;3.53;2.35;;;15.00;99.90;;;;;;4982066;28;20049;-71
2023/08/30 00:44:32;;;;;;;7.80;2.80;;;15.00;99.90;;;;;;4978652;28;20941;-69
2023/08/30 00:46:57;;;;;;;6.95;2.80;;;15.00;99.90;;;;;;4972587;28;20038;-69
2023/08/30 00:49:23;;;;;;;7.18;2.83;;;15.00;99.90;;;;;;4988780;28;20038;-70
2023/08/30 00:51:49;;;;;;;5.40;3.20;;;15.10;99.90;;;;;;4985674;28;20089;-70
2023/08/30 00:54:16;;;;;;;6.45;2.80;;;15.00;99.90;;;;;;4982384;28;20039;-70
2023/08/30 00:56:41;;;;;;;8.70;2.85;;;15.00;99.90;;;;;;4983734;28;20512;-72
2023/08/30 00:59:07;;;;;;;7.93;2.77;;;15.00;99.90;;;;;;4976159;28;20034;-72
2023/08/30 01:01:32;;;;;;;5.93;2.57;;;15.00;99.90;;;;;;4979144;28;20133;-70
2023/08/30 01:03:58;;;;;;;6.23;2.50;;;15.10;99.90;;;;;;4983334;28;20029;-72
2023/08/30 01:06:24;;;;;;;3.47;2.33;;;15.10;99.90;;;;;;4981752;28;20033;-71
2023/08/30 01:08:51;;;;;;;7.63;2.33;;;15.10;99.90;;;;;;4977598;28;20161;-72
2023/08/30 01:11:27;;;;;;;6.53;2.60;;;15.10;99.90;;;;;;4985902;28;20018;-71
2023/08/30 01:14:07;;;;;;;9.63;3.35;;;15.00;99.90;;;;;;4979336;28;20026;-73
2023/08/30 01:16:35;;;;;;;7.13;2.72;;;15.00;99.90;;;;;;4975166;28;20497;-73
2023/08/30 01:19:23;;;;;;;3.40;2.60;;;15.00;99.90;;;;;;4980491;28;20026;-73
2023/08/30 01:22:08;;;;;;;6.90;2.75;;;15.00;99.90;;;;;;4981969;28;20031;-72
2023/08/30 01:25:00;;;;;;;5.15;2.22;;;14.90;99.90;;;;;;4969741;28;20105;-70
2023/08/30 01:27:28;;;;;;;5.50;2.42;;;14.80;99.90;;;;;;4984503;28;20030;-69
2023/08/30 01:29:56;;;;;;;6.70;2.83;;;14.70;99.90;;;;;;4980209;28;20443;-71
2023/08/30 01:32:25;;;;;;;5.57;2.70;;;14.70;99.90;;;;;;4972576;28;20806;-69
2023/08/30 01:34:51;;;;;;;10.85;3.17;;;14.60;99.90;;;;;;4988354;28;20521;-72
2023/08/30 01:37:18;;;;;;;7.45;2.70;;;14.60;99.90;;;;;;4986886;28;20640;-72
2023/08/30 01:39:44;;;;;;;;;;;14.60;99.90;;;;;;4980144;28;20034;-73
2023/08/30 01:42:11;;;;;;;7.43;2.67;;;14.50;99.90;;;;;;4980102;28;19914;-70
2023/08/30 01:44:37;;;;;;;7.28;2.95;;;14.50;99.90;;;;;;4986162;28;20034;-71
2023/08/30 01:47:03;;;;;;;9.95;2.88;;;14.40;99.90;;;;;;4977472;28;20407;-71
2023/08/30 01:49:33;;;;;;;6.00;2.92;;;14.50;99.90;;;;;;4980186;28;20502;-73
2023/08/30 01:52:00;;;;;;;6.00;2.78;;;14.40;99.90;;;;;;4984399;28;20030;-73
2023/08/30 01:54:28;;;;;;;6.82;2.70;;;14.40;99.90;;;;;;4980397;28;20044;-70
2023/08/30 01:56:53;;;;;;;3.58;2.58;;;14.30;99.90;;;;;;5011637;28;20037;-70
2023/08/30 01:59:19;;;;;;;6.30;3.10;;;14.30;99.90;;;;;;4982455;28;20241;-72
2023/08/30 02:01:44;;;;;;;6.73;2.93;;;14.20;99.90;;;;;;4988252;28;20116;-70
2023/08/30 02:04:10;;;;;;;5.20;2.70;;;14.20;99.90;;;;;;4980753;28;20044;-70
2023/08/30 02:06:57;;;;;;;5.17;3.13;;;14.20;99.90;;;;;;4988646;28;20561;-69
2023/08/30 02:09:49;;;;;;;6.23;2.90;;;14.10;99.90;;;;;;4978257;28;20054;-70
2023/08/30 02:12:16;;;;;;;5.40;3.30;;;14.10;99.90;;;;;;4983768;28;20018;-70
2023/08/30 02:14:46;;;;;;;8.20;3.10;;;14.00;99.90;;;;;;4981610;28;20402;-70
2023/08/30 02:17:14;;;;;;;13.40;2.85;;;14.00;99.90;;;;;;4981317;28;20030;-70
2023/08/30 02:19:41;;;;;;;7.65;2.92;;;14.00;99.90;;;;;;4976814;28;20050;-70
2023/08/30 02:22:06;;;;;;;4.68;3.38;;;13.90;99.90;;;;;;4984629;28;20038;-70
2023/08/30 02:24:32;;;;;;;3.10;2.77;;;13.90;99.90;;;;;;4974159;28;20037;-72
2023/08/30 02:26:58;;;;;;;6.43;3.10;;;13.90;99.90;;;;;;4987309;28;20057;-71
2023/08/30 02:29:23;;;;;;;9.80;3.93;;;13.90;99.90;;;;;;4988416;28;20458;-70
2023/08/30 02:31:49;;;;;;;5.77;3.10;;;13.90;99.90;;;;;;4980069;28;20042;-69
2023/08/30 02:34:15;;;;;;;3.23;2.67;;;13.80;99.90;;;;;;4978413;28;20077;-69
2023/08/30 02:36:40;;;;;;;4.37;3.00;;;13.70;99.90;;;;;;4988930;28;20726;-71
2023/08/30 02:39:06;;;;;;;7.87;3.30;;;13.80;99.90;;;;;;4985786;28;20030;-71
2023/08/30 02:41:31;;;;;;;5.97;3.73;;;13.70;99.90;;;;;;4986753;28;20029;-70
2023/08/30 02:43:57;;;;;;;11.50;3.30;;;13.60;99.90;;;;;;4979300;28;20041;-72
2023/08/30 02:46:23;;;;;;;7.27;3.50;;;13.50;99.90;;;;;;5008125;28;20106;-71
2023/08/30 02:48:48;;;;;;;13.30;3.50;;;13.60;99.90;;;;;;4983232;28;20070;-71
2023/08/30 02:51:14;;;;;;;6.17;3.40;;;13.50;99.90;;;;;;4981577;28;20506;-71
2023/08/30 02:53:39;;;;;;;7.07;3.47;;;13.40;99.90;;;;;;4982926;28;20035;-72
2023/08/30 02:56:05;;;;;;;4.67;2.93;;;13.50;99.90;;;;;;4979291;28;20555;-72
2023/08/30 02:58:31;;;;;;;5.37;3.73;;;13.50;99.90;;;;;;4986127;28;20041;-70
2023/08/30 03:00:56;;;;;;;5.30;3.53;;;13.50;99.90;;;;;;4986032;28;20446;-70
2023/08/30 03:03:22;;;;;;;7.23;3.07;;;13.50;99.90;;;;;;4977646;28;20051;-71
2023/08/30 03:05:47;;;;;;;6.40;3.83;;;13.50;99.90;;;;;;4986011;28;20058;-71
2023/08/30 03:08:13;;;;;;;9.90;3.53;;;13.50;99.90;;;;;;4980706;28;20022;-70
2023/08/30 03:10:38;;;;;;;4.70;3.80;;;13.50;99.90;;;;;;4987726;28;20308;-69
2023/08/30 03:13:04;;;;;;;5.50;3.27;;;13.40;99.90;;;;;;4982045;28;20031;-69
2023/08/30 03:15:33;;;;;;;4.53;3.38;;;13.30;99.90;;;;;;4979780;28;20053;-70
2023/08/30 03:18:00;;;;;;;16.33;3.35;;;13.20;99.90;;;;;;4977940;28;20026;-69
2023/08/30 03:20:25;;;;;;;9.25;3.67;;;13.20;99.90;;;;;;4985296;28;20043;-69
2023/08/30 03:22:51;;;;;;;4.10;3.33;;;13.20;99.90;;;;;;4986964;28;20088;-69
2023/08/30 03:25:16;;;;;;;8.50;3.77;;;13.20;99.90;;;;;;4979584;28;20117;-70
2023/08/30 03:27:44;;;;;;;8.13;3.40;;;13.10;99.90;;;;;;4985397;28;20049;-70
2023/08/30 03:30:10;;;;;;;5.55;4.13;;;13.20;99.90;;;;;;4978476;28;20034;-72
2023/08/30 03:32:36;;;;;;;6.70;3.55;;;13.30;99.90;;;;;;4980338;28;20141;-70
2023/08/30 03:35:03;;;;;;;10.15;3.28;;;13.30;99.90;;;;;;4985407;28;20038;-70
2023/08/30 03:37:29;;;;;;;5.68;3.20;;;13.20;99.90;;;;;;4982370;28;20611;-69
2023/08/30 03:39:54;;;;;;;6.60;4.10;;;13.20;99.90;;;;;;4982308;28;20044;-69
2023/08/30 03:42:20;;;;;;;6.07;3.47;;;13.10;99.90;;;;;;4984166;28;20395;-69
2023/08/30 03:44:45;;;;;;;5.43;3.10;;;13.20;99.90;;;;;;4980828;28;20035;-69
2023/08/30 03:47:11;;;;;;;6.77;4.27;;;13.20;99.90;;;;;;4976681;28;20063;-71
2023/08/30 03:49:36;;;;;;;4.90;3.70;;;13.30;99.90;;;;;;4979323;28;20031;-71
2023/08/30 03:52:02;;;;;;;4.93;3.47;;;13.10;99.90;;;;;;4983657;28;20173;-71
2023/08/30 03:54:28;;;;;;;5.10;3.47;;;13.10;99.90;;;;;;4980644;28;20030;-70
2023/08/30 03:56:53;;;;;;;8.80;4.13;;;13.10;99.90;;;;;;4979236;28;20318;-72
2023/08/30 03:59:19;;;;;;;8.17;3.33;;;13.10;99.90;;;;;;4980588;28;20511;-71
2023/08/30 04:01:45;;;;;;;4.50;3.43;;;13.20;99.90;;;;;;4980476;28;20030;-71
2023/08/30 04:04:11;;;;;;;7.90;3.50;;;13.00;99.90;;;;;;4978306;28;20030;-70
2023/08/30 04:06:36;;;;;;;5.97;3.95;;;13.00;99.90;;;;;;4981188;28;20101;-70
2023/08/30 04:09:02;;;;;;;5.87;3.40;;;13.10;99.90;;;;;;4975608;28;20030;-69
2023/08/30 04:11:28;;;;;;;8.10;3.73;;;13.00;99.90;;;;;;4982744;28;20030;-70
2023/08/30 04:13:53;;;;;;;4.80;3.67;;;13.10;99.90;;;;;;4982577;28;20019;-68
2023/08/30 04:16:19;;;;;;;6.63;4.43;;;13.10;99.90;;;;;;4983530;28;20100;-70
2023/08/30 04:18:44;;;;;;;8.17;4.27;;;13.00;99.90;;;;;;4978478;28;20121;-70
2023/08/30 04:21:10;;;;;;;8.27;4.00;;;13.00;99.90;;;;;;4980336;28;20033;-70
2023/08/30 04:23:35;;;;;;;10.57;3.90;;;13.10;99.90;;;;;;4983650;28;20490;-70
2023/08/30 04:26:01;;;;;;;5.63;3.20;;;13.10;99.90;;;;;;4978406;28;20042;-71
2023/08/30 04:28:27;;;;;;;5.77;3.63;;;13.10;99.90;;;;;;4981484;28;20037;-70
2023/08/30 04:30:56;;;;;;;7.40;4.40;;;13.10;99.90;;;;;;4975672;28;20031;-69
2023/08/30 04:33:23;;;;;;;4.07;3.67;;;13.10;99.90;;;;;;4978320;28;20897;-71
2023/08/30 04:35:51;;;;;;;;;;;13.20;99.90;;;;;;4978461;28;20034;-71
2023/08/30 04:38:17;;;;;;;5.25;3.75;;;13.20;99.90;;;;;;4982827;28;19913;-70
2023/08/30 04:40:42;;;;;;;6.60;4.30;;;13.10;99.90;;;;;;4979635;28;20520;-69
2023/08/30 04:43:08;;;;;;;6.37;3.60;;;13.20;99.90;;;;;;4985292;28;20045;-69
2023/08/30 04:45:35;;;;;;;4.20;3.23;;;13.10;99.90;;;;;;4978045;28;20073;-71
2023/08/30 04:48:00;;;;;;;7.32;3.60;;;13.10;99.90;;;;;;4978509;28;20038;-70
2023/08/30 04:50:26;;;;;;;7.63;3.63;;;13.20;99.90;;;;;;4982428;28;20026;-70
2023/08/30 04:52:51;;;;;;;5.83;3.30;;;13.20;99.90;;;;;;4980608;28;20434;-69
2023/08/30 04:55:18;;;;;;;6.07;3.80;;;13.30;99.90;;;;;;4973166;28;20039;-71
2023/08/30 04:57:47;;;;;;;6.50;3.97;;;13.20;99.90;;;;;;4978702;28;20078;-71
2023/08/30 05:00:13;;;;;;;7.70;3.90;;;13.20;99.90;;;;;;5014437;28;20045;-70
2023/08/30 05:02:40;;;;;;;8.68;3.80;;;13.30;99.90;;;;;;4977533;28;20039;-71
2023/08/30 05:05:06;;;;;;;6.70;4.50;;;13.30;99.90;;;;;;4975414;28;20110;-71
2023/08/30 05:07:32;;;;;;;7.97;4.07;;;13.10;99.90;;;;;;4979313;28;20474;-72
2023/08/30 05:09:57;;;;;;;5.73;3.60;;;13.10;99.90;;;;;;4976902;28;20278;-71
2023/08/30 05:12:23;;;;;;;7.00;4.23;;;13.30;99.90;;;;;;4980845;28;20655;-70
2023/08/30 05:14:48;;;;;;;5.23;3.67;;;13.20;99.90;;;;;;4974328;28;20033;-70
2023/08/30 05:17:14;;;;;;;6.07;3.83;;;13.30;99.90;;;;;;4979164;28;20054;-71
2023/08/30 05:19:39;;;;;;;6.13;4.17;;;13.50;99.90;;;;;;4979244;28;20039;-71
2023/08/30 05:22:05;;;;;;;8.07;3.43;;;13.60;99.90;;;;;;4985072;28;20529;-72
2023/08/30 05:24:31;;;;;;;5.83;3.57;;;13.70;99.90;;;;;;4979248;28;20057;-71
2023/08/30 05:26:56;;;;;;;7.73;3.70;;;13.70;99.90;;;;;;4985240;28;20108;-71
2023/08/30 05:29:22;;;;;;;6.50;3.63;;;13.80;99.90;;;;;;4982331;28;20058;-72
2023/08/30 05:31:48;;;;;;;8.33;3.53;;;13.70;99.90;;;;;;4983078;28;20549;-70
2023/08/30 05:34:13;;;;;;;8.00;3.83;;;13.60;99.90;;;;;;4980738;28;20031;-72
2023/08/30 05:36:39;;;;;;;9.50;3.70;;;13.60;99.90;;;;;;4979324;28;20037;-74
2023/08/30 05:39:05;;;;;;;4.80;3.40;;;13.80;99.90;;;;;;4980918;28;20391;-71
2023/08/30 05:41:31;;;;;;;13.43;4.07;;;13.90;99.90;;;;;;4975359;28;20034;-73
2023/08/30 05:43:56;;;;;;;8.03;4.00;;;13.90;99.90;;;;;;4980489;28;20034;-72
2023/08/30 05:46:22;;;;;;;6.83;3.93;;;14.00;99.90;;;;;;4976402;28;20378;-72
2023/08/30 05:48:48;;;;;;;11.23;3.60;;;14.00;99.90;;;;;;4981850;28;20170;-73
2023/08/30 05:51:13;;;;;;;3.80;2.93;;;14.10;99.90;;;;;;4978131;28;20030;-73
2023/08/30 05:53:39;;;;;;;9.47;3.83;;;14.00;99.90;;;;;;4973351;28;20033;-74
2023/08/30 05:56:04;;;;;;;10.23;4.13;;;14.20;99.90;;;;;;4973144;28;20046;-67
2023/08/30 05:58:30;;;;;;;10.67;4.50;;;14.20;99.90;;;;;;4976063;28;20044;-73
2023/08/30 06:01:03;;;;;;;5.43;4.13;;;14.20;99.90;;;;;;4979705;28;20030;-71
2023/08/30 06:03:28;;;;;;;7.30;4.05;;;14.30;99.90;;;;;;4975705;28;20046;-71
2023/08/30 06:05:54;;;;;;;9.97;3.63;;;14.40;99.90;;;;;;4977509;28;20708;-72
2023/08/30 06:37:05;;;;;;;29.33;8.10;;;15.60;99.90;;;;;;4985815;28;20816;-71
2023/08/30 06:39:36;;;;;;;21.37;10.60;;;15.60;99.90;;;;;;4977489;28;20039;-70
2023/08/30 06:42:02;;;;;;;16.95;8.18;;;15.70;99.90;;;;;;4978740;28;20464;-68
2023/08/30 06:44:29;;;;;;;15.20;9.88;;;15.70;99.90;;;;;;4996800;28;20095;-68
2023/08/30 06:46:56;;;;;;;13.32;9.45;;;15.70;99.90;;;;;;4980533;28;20066;-70
2023/08/30 06:49:22;;;;;;;13.68;10.63;;;15.70;99.90;;;;;;4992112;28;20074;-70
2023/08/30 06:51:48;;;;;;;15.43;11.18;;;15.80;99.90;;;;;;4982625;28;20063;-71
2023/08/30 06:54:14;;;;;;;17.25;10.75;;;15.90;99.90;;;;;;4986564;28;20059;-69
2023/08/30 06:56:40;;;;;;;14.60;10.77;;;15.90;99.90;;;;;;4983453;28;20033;-70
2023/08/30 06:59:05;;;;;;;13.60;10.03;;;16.00;99.90;;;;;;4983615;28;20030;-69
2023/08/30 07:01:31;;;;;;;15.10;10.90;;;16.10;99.90;;;;;;4979829;28;20339;-71
2023/08/30 07:03:57;;;;;;;17.63;11.05;;;16.30;99.90;;;;;;4981007;28;20027;-71
2023/08/30 07:06:24;;;;;;;13.30;9.68;;;16.40;99.90;;;;;;4984157;28;20030;-71
2023/08/30 07:08:50;;;;;;;13.00;9.27;;;16.40;99.90;;;;;;4981385;28;20117;-70
2023/08/30 07:11:15;;;;;;;10.45;9.10;;;16.30;99.90;;;;;;4978831;28;20035;-70
2023/08/30 07:13:42;;;;;;;13.55;7.68;;;16.20;99.90;;;;;;4984643;28;20030;-70
2023/08/30 07:16:07;;;;;;;12.05;9.52;;;16.30;99.90;;;;;;4979339;28;20114;-70
2023/08/30 07:18:33;;;;;;;13.63;10.00;;;16.40;99.90;;;;;;4979324;28;20129;-70
2023/08/30 07:20:58;;;;;;;12.13;8.77;;;16.50;99.90;;;;;;4978564;28;20030;-69
2023/08/30 07:23:24;;;;;;;11.73;7.80;;;16.50;99.90;;;;;;4978747;28;20038;-70
2023/08/30 07:25:51;;;;;;;12.50;9.50;;;16.60;99.90;;;;;;4974648;28;20430;-69
2023/08/30 07:28:17;;;;;;;15.57;8.90;;;16.70;99.90;;;;;;4979090;28;20034;-69
2023/08/30 07:30:43;;;;;;;14.00;8.03;;;17.00;99.90;;;;;;4980313;28;20482;-68
2023/08/30 07:33:09;;;;;;;9.57;7.73;;;17.20;99.90;;;;;;4978549;28;20034;-69
2023/08/30 07:35:35;;;;;;;11.75;8.15;;;17.30;99.90;;;;;;4975677;28;20289;-69
2023/08/30 07:38:00;;;;;;;16.63;9.83;;;17.40;99.90;;;;;;4981519;28;20038;-70
2023/08/30 07:40:28;;;;;;;9.50;7.55;;;17.50;99.90;;;;;;4980930;28;20544;-68
2023/08/30 07:42:54;;;;;;;12.45;6.65;;;17.60;99.90;;;;;;4974476;28;20039;-68
2023/08/30 07:45:20;;;;;;;10.40;7.72;;;17.50;99.90;;;;;;4977330;28;20037;-70
2023/08/30 07:47:45;;;;;;;14.47;7.53;;;17.40;99.90;;;;;;4979386;28;20034;-70
2023/08/30 07:50:11;;;;;;;16.00;7.80;;;17.50;99.90;;;;;;4988973;28;20022;-70
2023/08/30 07:52:37;;;;;;;9.10;7.03;;;17.60;99.90;;;;;;4978399;28;20096;-70
2023/08/30 07:55:03;;;;;;;9.73;6.90;;;17.50;99.90;;;;;;4978475;28;20062;-71
2023/08/30 07:57:28;;;;;;;9.32;6.72;;;17.40;99.90;;;;;;4983471;28;20301;-71
2023/08/30 07:59:54;;;;;;;8.07;6.27;;;17.50;99.90;;;;;;4981475;28;20444;-71
2023/08/30 08:02:20;;;;;;;7.80;6.97;;;18.00;99.90;;;;;;4975831;28;20042;-71
2023/08/30 08:04:45;;;;;;;32.50;8.40;;;18.20;99.90;;;;;;4973860;28;20120;-70
2023/08/30 08:07:11;;;;;;;27.57;9.23;;;17.90;99.90;;;;;;4980669;28;20619;-69
2023/08/30 08:09:37;;;;;;;10.82;6.18;;;17.70;99.90;;;;;;4977636;28;20486;-70
2023/08/30 08:12:03;;;;;;;9.03;6.50;;;17.90;99.90;;;;;;4973986;28;20134;-71
2023/08/30 08:14:29;;;;;;;7.47;6.35;;;18.50;99.90;;;;;;4974513;28;20058;-70
2023/08/30 08:16:54;;;;;;;8.33;6.60;;;18.50;99.90;;;;;;4981357;28;20130;-71
2023/08/30 08:19:21;;;;;;;8.43;6.50;;;18.70;99.90;;;;;;4972506;28;20031;-71
2023/08/30 08:21:47;;;;;;;;;;;18.70;99.90;;;;;;4976136;28;20038;-72
2023/08/30 08:24:13;;;;;;;10.95;5.95;;;18.80;99.90;;;;;;4975392;28;19910;-70
2023/08/30 08:26:38;;;;;;;14.43;5.75;;;18.70;99.90;;;;;;4980676;28;20030;-69
2023/08/30 08:29:04;;;;;;;6.80;5.03;;;18.90;99.90;;;;;;4983226;28;20045;-70
2023/08/30 08:31:30;;;;;;;7.97;5.93;;;19.00;99.90;;;;;;4982077;28;20030;-73
2023/08/30 08:34:10;;;;;;;8.23;5.87;;;19.20;99.90;;;;;;4977279;28;20065;-74
2023/08/30 08:36:36;;;;;;;7.72;5.65;;;19.20;99.90;;;;;;4981351;28;20034;-79
2023/08/30 08:39:04;;;;;;;11.70;5.10;;;19.90;98.60;;;;;;4981860;28;20073;-77
2023/08/30 08:41:41;;;;;;;8.20;4.97;;;21.10;97.20;;;;;;4977660;28;20027;-81
2023/08/30 08:44:08;;;;;;;11.50;4.97;;;21.00;94.90;;;;;;4972142;28;20325;-75
2023/08/30 08:46:36;;;;;;;7.55;4.53;;;20.30;95.90;;;;;;4973073;28;20387;-81
2023/08/30 08:49:10;;;;;;;6.53;4.95;;;20.20;96.60;;;;;;4989732;28;20571;-77
2023/08/30 08:51:37;;;;;;;5.90;3.50;;;20.10;98.00;;;;;;4975444;28;20030;-80
2023/08/30 08:54:03;;;;;;;;;;;20.50;95.40;;;;;;4973087;28;20054;-80
2023/08/30 08:56:30;;;;;;;8.82;3.28;;;20.20;93.80;;;;;;4980161;28;19916;-80
2023/08/30 08:58:56;;;;;;;5.88;3.42;;;20.90;94.00;;;;;;4973036;28;20030;-83
2023/08/30 09:01:23;;;;;;;5.28;3.25;;;21.50;92.40;;;;;;4985114;28;20100;-80
2023/08/30 09:03:50;;;;;;;4.18;2.92;;;20.80;93.00;;;;;;4976058;28;20090;-76
2023/08/30 09:06:17;;;;;;;5.10;2.75;;;20.50;92.30;;;;;;4974743;28;20041;-75
2023/08/30 09:08:42;;;;;;;5.88;3.00;;;20.70;92.80;;;;;;4978410;28;20386;-81
2023/08/30 09:11:08;;;;;;;6.40;3.03;;;20.90;92.50;;;;;;4979864;28;20034;-74
2023/08/30 09:13:34;;;;;;;4.22;2.83;;;21.20;92.30;;;;;;4978736;28;20041;-72
2023/08/30 09:16:00;;;;;;;4.57;2.87;;;22.40;89.40;;;;;;4979555;28;20050;-80
2023/08/30 09:18:28;;;;;;;7.88;3.17;;;23.10;86.20;;;;;;4980401;28;20417;-75
2023/08/30 09:21:08;;;;;;;5.10;2.60;;;23.10;85.30;;;;;;4977442;28;20053;-73
2023/08/30 09:23:34;;;;;;;4.80;2.85;;;23.20;82.30;;;;;;4994019;28;20553;-73
2023/08/30 09:26:00;;;;;;;9.27;2.50;;;23.00;81.90;;;;;;4977450;28;20023;-74
2023/08/30 09:28:26;;;;;;;;;;;22.10;85.30;;;;;;4981125;28;20127;-78
2023/08/30 09:30:52;;;;;;;3.95;3.30;;;23.20;84.10;;;;;;4979605;28;20687;-79
2023/08/30 09:33:22;;;;;;;4.53;2.75;;;25.00;78.60;;;;;;4982719;28;20406;-80
2023/08/30 09:35:48;;;;;;;6.47;2.53;;;25.70;74.60;;;;;;4971682;28;20030;-82
2023/08/30 09:38:20;;;;;;;3.75;2.42;;;26.20;77.90;;;;;;4978336;28;20061;-74
2023/08/30 09:40:47;;;;;;;2.97;2.63;;;26.80;74.40;;;;;;4972626;28;20034;-76
2023/08/30 09:43:13;;;;;;;5.40;2.83;;;25.90;73.70;;;;;;4976438;28;20069;-76
2023/08/30 09:45:39;;;;;;;8.05;2.78;;;26.40;70.70;;;;;;4976454;28;20029;-73
2023/08/30 09:48:05;;;;;;;11.43;2.72;;;26.80;71.10;;;;;;4975342;28;20031;-79
2023/08/30 09:50:35;;;;;;;6.70;2.85;;;27.10;72.70;;;;;;4975547;28;20922;-75
2023/08/30 09:53:09;;;;;;;3.25;2.75;;;26.50;72.10;;;;;;4981355;28;20026;-79
2023/08/30 09:55:35;;;;;;;3.80;2.47;;;25.90;72.70;;;;;;4983986;28;20037;-78
2023/08/30 09:58:06;;;;;;;5.82;2.22;;;26.60;68.90;;;;;;4977404;28;20035;-78
2023/08/30 10:00:36;;;;;;;3.97;2.38;;;26.10;70.70;;;;;;4981905;28;20121;-79
2023/08/30 10:03:02;;;;;;;5.90;2.55;;;26.30;71.50;;;;;;4980734;28;20041;-80
2023/08/30 10:05:30;;;;;;;2.78;2.47;;;27.10;69.70;;;;;;4978849;28;20057;-76
2023/08/30 10:07:56;;;;;;;2.25;2.05;;;27.30;68.90;;;;;;4980714;28;20038;-78
2023/08/30 10:10:23;;;;;;;3.35;1.90;;;27.80;66.40;;;;;;4985975;28;20030;-77
2023/08/30 10:12:50;;;;;;;2.35;2.15;;;26.20;68.50;;;;;;4980275;28;20524;-76
2023/08/30 10:15:15;;;;;;;;;;;25.60;71.50;;;;;;4981444;28;20058;-77
2023/08/30 10:17:44;;;;;;;4.82;1.80;;;25.60;70.00;;;;;;4980689;28;20007;-72
2023/08/30 10:20:14;;;;;;;2.90;1.63;;;24.20;73.50;;;;;;4980950;28;20022;-78
2023/08/30 10:22:41;;;;;;;7.07;2.55;;;23.90;74.30;;;;;;4930917;28;20497;-76
2023/08/30 10:25:12;;;;;;;4.20;2.58;;;25.20;72.00;;;;;;4943513;28;20093;-82
2023/08/30 10:27:42;;;;;;;2.92;2.15;;;24.40;74.60;;;;;;4979640;28;20030;-83
2023/08/30 10:30:10;;;;;;;2.67;2.20;;;26.30;71.20;;;;;;4981258;28;20031;-88
2023/08/30 10:32:43;;;;;;;7.90;2.10;;;26.60;71.10;;;;;;4982270;28;20065;-75
2023/08/30 10:35:15;;;;;;;2.58;1.90;;;26.70;69.60;;;;;;4981691;28;20037;-82
2023/08/30 10:37:42;;;;;;;2.17;1.92;;;26.80;70.10;;;;;;4983759;28;20142;-84
2023/08/30 10:40:08;;;;;;;5.95;1.90;;;26.90;68.50;;;;;;4980314;28;20034;-80
2023/08/30 10:42:34;;;;;;;7.90;3.15;;;26.90;67.80;;;;;;4979351;28;20042;-83
2023/08/30 10:45:05;;;;;;;4.50;2.00;;;26.90;68.70;;;;;;4981788;28;20120;-77
2023/08/30 10:47:37;;;;;;;3.70;1.95;;;25.60;68.80;;;;;;4995976;28;21765;-69
2023/08/30 10:50:12;;;;;;;3.63;2.10;;;24.90;69.70;;;;;;4974091;28;20047;-67
2023/08/30 10:52:38;;;;;;;7.97;2.28;;;24.70;68.90;;;;;;4979843;28;20559;-67
2023/08/30 10:55:09;;;;;;;3.00;1.83;;;24.50;70.30;;;;;;4977507;28;20046;-68
2023/08/30 10:57:35;;;;;;;3.47;2.08;;;24.00;69.90;;;;;;4986640;28;20577;-68
2023/08/30 11:00:05;;;;;;;10.50;2.22;;;23.60;71.60;;;;;;4982400;28;20886;-68
2023/08/30 11:02:32;;;;;;;3.55;1.95;;;23.40;70.80;;;;;;4981077;28;20540;-68
2023/08/30 11:04:59;;;;;;;3.65;2.10;;;23.50;72.10;;;;;;4978739;28;20058;-67
2023/08/30 11:07:25;;;;;;;4.20;2.15;;;23.50;70.50;;;;;;4984833;28;20387;-67
2023/08/30 11:09:52;;;;;;;5.90;1.88;;;23.50;70.90;;;;;;4976464;28;20031;-67
2023/08/30 11:12:18;;;;;;;3.53;1.70;;;23.40;71.70;;;;;;4983665;28;20525;-68
2023/08/30 11:14:44;;;;;;;3.25;1.73;;;23.50;72.60;;;;;;4978040;28;20042;-67
2023/08/30 11:17:10;;;;;;;3.13;2.00;;;23.30;73.20;;;;;;4974979;28;20022;-67
2023/08/30 11:19:36;;;;;;;2.88;1.90;;;23.20;72.40;;;;;;4977510;28;20050;-67
2023/08/30 11:22:01;;;;;;;2.70;1.90;;;23.30;73.20;;;;;;4978581;28;20138;-67
2023/08/30 11:24:27;;;;;;;3.28;1.85;;;23.10;72.50;;;;;;4976447;28;20340;-68
2023/08/30 11:26:54;;;;;;;4.00;1.88;;;23.00;72.10;;;;;;4975643;28;20035;-68
2023/08/30 11:29:20;;;;;;;4.50;1.65;;;22.90;72.10;;;;;;4979617;28;20086;-68
2023/08/30 11:31:46;;;;;;;2.33;1.70;;;22.90;73.60;;;;;;4993141;28;20563;-67
2023/08/30 11:34:12;;;;;;;6.05;1.65;;;22.60;71.80;;;;;;4980205;28;20049;-67
2023/08/30 11:36:39;;;;;;;4.93;2.17;;;22.50;72.80;;;;;;4984552;28;20034;-67
2023/08/30 11:39:05;;;;;;;2.72;1.80;;;22.60;75.00;;;;;;4977930;28;20092;-67
2023/08/30 11:41:31;;;;;;;3.50;1.90;;;22.60;72.80;;;;;;4988119;28;20027;-67
2023/08/30 11:43:58;;;;;;;3.63;1.55;;;22.50;73.80;;;;;;4984249;28;20092;-67
2023/08/30 11:46:24;;;;;;;2.22;1.73;;;22.30;72.50;;;;;;4975625;28;20502;-67
2023/08/30 11:48:52;;;;;;;2.22;2.00;;;22.50;72.20;;;;;;4980022;28;20081;-67
2023/08/30 11:51:18;;;;;;;3.25;1.60;;;22.30;72.10;;;;;;4979658;28;20509;-67
2023/08/30 11:53:45;;;;;;;5.25;1.80;;;22.60;74.30;;;;;;4979952;28;20090;-67
2023/08/30 11:56:11;;;;;;;6.60;1.80;;;22.90;72.60;;;;;;4977577;28;20491;-67
2023/08/30 11:58:37;;;;;;;2.17;1.98;;;22.70;72.90;;;;;;4979034;28;20022;-67
2023/08/30 12:01:04;;;;;;;4.32;1.60;;;22.60;72.50;;;;;;4983459;28;20026;-67
2023/08/30 12:03:31;;;;;;;3.35;1.85;;;23.00;74.00;;;;;;4979035;28;20045;-68
2023/08/30 12:05:57;;;;;;;6.75;2.08;;;23.00;72.60;;;;;;4979688;28;20045;-67
2023/08/30 12:08:24;;;;;;;;;;;22.80;71.20;;;;;;4982652;28;20018;-67
2023/08/30 12:10:50;;;;;;;3.30;1.80;;;23.00;71.40;;;;;;4980806;28;19921;-68
2023/08/30 12:13:27;;;;;;;2.97;1.55;;;23.20;71.40;;;;;;4978584;28;20028;-67
2023/08/30 12:15:57;;;;;;;2.00;1.50;;;23.40;68.40;;;;;;4980605;28;20390;-66
2023/08/30 12:18:24;;;;;;;4.45;1.88;;;23.50;70.70;;;;;;4977416;28;20049;-69
2023/08/30 12:20:53;;;;;;;3.20;1.63;;;23.80;71.10;;;;;;4975694;28;20141;-68
2023/08/30 12:23:27;;;;;;;4.75;1.90;;;23.70;70.90;;;;;;4980016;28;20074;-67
2023/08/30 12:25:59;;;;;;;3.42;1.77;;;23.90;69.00;;;;;;4979347;28;20327;-70
2023/08/30 12:28:28;;;;;;;8.20;1.70;;;23.90;71.20;;;;;;4981352;28;20125;-67
2023/08/30 12:30:54;;;;;;;6.47;1.60;;;23.90;69.10;;;;;;4980313;28;20026;-66
2023/08/30 12:33:20;;;;;;;2.72;2.00;;;23.70;66.50;;;;;;4976943;28;20119;-67
2023/08/30 12:35:46;;;;;;;5.03;2.13;;;23.20;67.90;;;;;;4979674;28;20127;-68
2023/08/30 12:38:12;;;;;;;3.42;1.50;;;23.30;69.70;;;;;;4997126;28;20085;-65
2023/08/30 12:40:38;;;;;;;2.65;1.60;;;23.40;68.50;;;;;;4979325;28;20038;-66
2023/08/30 12:43:04;;;;;;;3.95;2.10;;;23.70;66.10;;;;;;4982546;28;20418;-69
2023/08/30 12:45:30;;;;;;;4.78;1.58;;;23.80;67.50;;;;;;4980687;28;20070;-66
2023/08/30 12:47:58;;;;;;;5.25;1.73;;;23.70;68.40;;;;;;4975934;28;20068;-66
2023/08/30 12:50:24;;;;;;;3.10;1.60;;;23.90;68.60;;;;;;4969636;28;20159;-66
2023/08/30 12:52:49;;;;;;;2.78;1.60;;;24.00;67.70;;;;;;4976023;28;20165;-67
2023/08/30 12:55:17;;;;;;;3.58;1.30;;;23.90;68.90;;;;;;4976536;28;20022;-68
2023/08/30 12:57:46;;;;;;;3.42;1.33;;;24.10;71.50;;;;;;4975225;28;20030;-68
2023/08/30 13:00:12;;;;;;;4.22;2.00;;;24.00;67.60;;;;;;4995441;28;20011;-66
2023/08/30 13:02:38;;;;;;;4.63;1.60;;;24.00;65.10;;;;;;4984218;28;20038;-66
2023/08/30 13:05:05;;;;;;;3.08;1.88;;;24.00;64.90;;;;;;4980264;28;20038;-68
2023/08/30 13:07:30;;;;;;;;;;;24.00;63.40;;;;;;4979683;28;20387;-67
2023/08/30 13:09:56;;;;;;;3.70;1.77;;;23.80;65.70;;;;;;4975262;28;19914;-68
2023/08/30 13:12:22;;;;;;;4.13;1.67;;;23.50;66.30;;;;;;4978944;28;21422;-66
2023/08/30 13:14:47;;;;;;;3.75;1.50;;;23.30;64.70;;;;;;4979188;28;20031;-66